sensor_id;sensor_type;location;lat;lon;timestamp;pressure;altitude;pressure_sealevel;temperature;humidity
9538;BME280;4807;48.024;11.726;2023-04-07T00:00:53;94966.25;;;1.79;62.47
9538;BME280;4807;48.024;11.726;2023-04-07T00:04:01;94979.13;;;1.73;63.36
9538;BME280;4807;48.024;11.726;2023-04-07T00:07:10;94970.47;;;1.63;62.97
9538;BME280;4807;48.024;11.726;2023-04-07T00:10:20;94976.28;;;1.66;63.25
9538;BME280;4807;48.024;11.726;2023-04-07T00:13:28;94970.56;;;1.53;62.86
9538;BME280;4807;48.024;11.726;2023-04-07T00:16:36;94969.13;;;1.59;63.62
9538;BME280;4807;48.024;11.726;2023-04-07T00:19:44;94964.63;;;1.51;63.20
9538;BME280;4807;48.024;11.726;2023-04-07T00:22:53;94964.25;;;1.46;63.28
9538;BME280;4807;48.024;11.726;2023-04-07T00:26:02;94974.19;;;1.42;63.44
9538;BME280;4807;48.024;11.726;2023-04-07T00:29:10;94973.22;;;1.43;63.51
9538;BME280;4807;48.024;11.726;2023-04-07T00:32:19;94969.75;;;1.43;64.21
9538;BME280;4807;48.024;11.726;2023-04-07T00:35:27;94958.88;;;1.38;64.31
9538;BME280;4807;48.024;11.726;2023-04-07T00:38:35;94961.19;;;1.41;64.69
9538;BME280;4807;48.024;11.726;2023-04-07T00:41:45;94958.53;;;1.50;64.61
9538;BME280;4807;48.024;11.726;2023-04-07T00:44:53;94951.44;;;1.33;65.21
9538;BME280;4807;48.024;11.726;2023-04-07T00:48:01;94957.78;;;1.31;64.80
9538;BME280;4807;48.024;11.726;2023-04-07T00:51:10;94951.69;;;1.40;65.30
9538;BME280;4807;48.024;11.726;2023-04-07T00:54:18;94945.78;;;1.38;65.94
9538;BME280;4807;48.024;11.726;2023-04-07T00:57:29;94946.84;;;1.45;65.26
9538;BME280;4807;48.024;11.726;2023-04-07T01:00:52;94950.91;;;1.57;65.02
9538;BME280;4807;48.024;11.726;2023-04-07T01:04:08;94948.09;;;1.68;63.65
9538;BME280;4807;48.024;11.726;2023-04-07T01:07:26;94944.19;;;1.72;63.68
9538;BME280;4807;48.024;11.726;2023-04-07T01:10:55;94936.94;;;1.84;62.38
9538;BME280;4807;48.024;11.726;2023-04-07T01:14:14;94930.03;;;1.83;62.20
9538;BME280;4807;48.024;11.726;2023-04-07T01:17:26;94939.84;;;1.81;62.93
9538;BME280;4807;48.024;11.726;2023-04-07T01:20:38;94932.97;;;1.98;62.63
9538;BME280;4807;48.024;11.726;2023-04-07T01:24:01;94925.97;;;1.88;62.40
9538;BME280;4807;48.024;11.726;2023-04-07T01:27:20;94928.59;;;1.88;62.58
9538;BME280;4807;48.024;11.726;2023-04-07T01:30:38;94924.13;;;1.99;62.48
9538;BME280;4807;48.024;11.726;2023-04-07T01:33:48;94928.19;;;2.11;61.60
9538;BME280;4807;48.024;11.726;2023-04-07T01:37:01;94933.81;;;2.16;62.18
9538;BME280;4807;48.024;11.726;2023-04-07T01:40:10;94930.91;;;2.19;61.87
9538;BME280;4807;48.024;11.726;2023-04-07T01:43:21;94930.06;;;2.18;62.07
9538;BME280;4807;48.024;11.726;2023-04-07T01:46:31;94925.25;;;2.14;61.79
9538;BME280;4807;48.024;11.726;2023-04-07T01:49:40;94928.34;;;2.09;62.45
9538;BME280;4807;48.024;11.726;2023-04-07T01:52:49;94927.13;;;2.39;61.38
9538;BME280;4807;48.024;11.726;2023-04-07T01:55:57;94921.94;;;2.47;61.19
9538;BME280;4807;48.024;11.726;2023-04-07T01:59:06;94918.94;;;2.42;60.83
9538;BME280;4807;48.024;11.726;2023-04-07T02:02:16;94910.88;;;2.61;61.35
9538;BME280;4807;48.024;11.726;2023-04-07T02:05:27;94916.19;;;2.69;60.09
9538;BME280;4807;48.024;11.726;2023-04-07T02:08:46;94908.19;;;2.53;61.22
9538;BME280;4807;48.024;11.726;2023-04-07T02:11:59;94899.66;;;2.51;61.84
9538;BME280;4807;48.024;11.726;2023-04-07T02:15:14;94914.72;;;2.49;61.90
9538;BME280;4807;48.024;11.726;2023-04-07T02:18:25;94913.75;;;2.50;62.45
9538;BME280;4807;48.024;11.726;2023-04-07T02:21:35;94904.56;;;2.54;62.14
9538;BME280;4807;48.024;11.726;2023-04-07T02:24:44;94907.59;;;2.59;62.65
9538;BME280;4807;48.024;11.726;2023-04-07T02:27:53;94906.44;;;2.62;62.59
9538;BME280;4807;48.024;11.726;2023-04-07T02:31:02;94906.97;;;2.65;62.63
9538;BME280;4807;48.024;11.726;2023-04-07T02:34:13;94909.66;;;2.74;61.99
9538;BME280;4807;48.024;11.726;2023-04-07T02:37:21;94908.13;;;2.71;61.91
9538;BME280;4807;48.024;11.726;2023-04-07T02:40:29;94903.66;;;2.63;63.17
9538;BME280;4807;48.024;11.726;2023-04-07T02:43:37;94902.09;;;2.79;62.12
9538;BME280;4807;48.024;11.726;2023-04-07T02:46:46;94905.31;;;2.90;62.63
9538;BME280;4807;48.024;11.726;2023-04-07T02:49:55;94901.47;;;2.85;62.86
9538;BME280;4807;48.024;11.726;2023-04-07T02:53:04;94897.31;;;3.00;63.93
9538;BME280;4807;48.024;11.726;2023-04-07T02:56:14;94895.47;;;3.26;65.00
9538;BME280;4807;48.024;11.726;2023-04-07T02:59:22;94899.50;;;3.47;66.07
9538;BME280;4807;48.024;11.726;2023-04-07T03:02:30;94895.41;;;3.52;66.59
9538;BME280;4807;48.024;11.726;2023-04-07T03:05:40;94887.44;;;3.78;66.21
9538;BME280;4807;48.024;11.726;2023-04-07T03:08:50;94886.63;;;3.94;66.50
9538;BME280;4807;48.024;11.726;2023-04-07T03:11:58;94887.78;;;3.99;66.24
9538;BME280;4807;48.024;11.726;2023-04-07T03:15:12;94902.63;;;4.08;66.68
9538;BME280;4807;48.024;11.726;2023-04-07T03:18:26;94892.09;;;4.16;66.51
9538;BME280;4807;48.024;11.726;2023-04-07T03:21:41;94905.09;;;4.10;67.17
9538;BME280;4807;48.024;11.726;2023-04-07T03:24:49;94898.88;;;4.19;66.58
9538;BME280;4807;48.024;11.726;2023-04-07T03:28:01;94898.50;;;4.14;67.00
9538;BME280;4807;48.024;11.726;2023-04-07T03:31:13;94898.72;;;4.29;66.84
9538;BME280;4807;48.024;11.726;2023-04-07T03:34:21;94889.81;;;4.21;67.13
9538;BME280;4807;48.024;11.726;2023-04-07T03:37:31;94889.97;;;4.20;67.47
9538;BME280;4807;48.024;11.726;2023-04-07T03:40:39;94894.06;;;4.22;66.72
9538;BME280;4807;48.024;11.726;2023-04-07T03:43:47;94891.44;;;4.31;66.40
9538;BME280;4807;48.024;11.726;2023-04-07T03:46:57;94893.75;;;4.26;67.62
9538;BME280;4807;48.024;11.726;2023-04-07T03:50:07;94893.75;;;4.17;67.26
9538;BME280;4807;48.024;11.726;2023-04-07T03:53:28;94895.41;;;4.18;67.77
9538;BME280;4807;48.024;11.726;2023-04-07T03:56:37;94892.78;;;4.18;67.50
9538;BME280;4807;48.024;11.726;2023-04-07T03:59:46;94887.50;;;4.18;67.60
9538;BME280;4807;48.024;11.726;2023-04-07T04:02:58;94886.84;;;4.25;68.19
9538;BME280;4807;48.024;11.726;2023-04-07T04:06:07;94879.59;;;4.35;67.99
9538;BME280;4807;48.024;11.726;2023-04-07T04:09:17;94868.56;;;4.39;67.97
9538;BME280;4807;48.024;11.726;2023-04-07T04:12:28;94877.63;;;4.29;68.15
9538;BME280;4807;48.024;11.726;2023-04-07T04:15:44;94876.47;;;4.31;69.03
9538;BME280;4807;48.024;11.726;2023-04-07T04:18:55;94881.72;;;4.23;69.38
9538;BME280;4807;48.024;11.726;2023-04-07T04:22:05;94879.44;;;4.28;69.42
9538;BME280;4807;48.024;11.726;2023-04-07T04:25:21;94876.81;;;4.20;69.48
9538;BME280;4807;48.024;11.726;2023-04-07T04:28:34;94869.06;;;4.18;69.62
9538;BME280;4807;48.024;11.726;2023-04-07T04:31:47;94880.25;;;4.20;69.45
9538;BME280;4807;48.024;11.726;2023-04-07T04:34:56;94868.41;;;4.33;69.46
9538;BME280;4807;48.024;11.726;2023-04-07T04:38:04;94874.16;;;4.20;69.92
9538;BME280;4807;48.024;11.726;2023-04-07T04:41:17;94871.19;;;4.31;69.80
9538;BME280;4807;48.024;11.726;2023-04-07T04:44:27;94869.38;;;4.32;69.74
9538;BME280;4807;48.024;11.726;2023-04-07T04:47:36;94872.16;;;4.30;69.42
9538;BME280;4807;48.024;11.726;2023-04-07T04:50:46;94875.63;;;4.31;69.99
9538;BME280;4807;48.024;11.726;2023-04-07T04:53:54;94874.00;;;4.13;70.42
9538;BME280;4807;48.024;11.726;2023-04-07T04:57:06;94871.53;;;4.28;70.27
9538;BME280;4807;48.024;11.726;2023-04-07T05:00:18;94868.41;;;4.25;69.74
9538;BME280;4807;48.024;11.726;2023-04-07T05:03:29;94870.19;;;4.32;69.88
9538;BME280;4807;48.024;11.726;2023-04-07T05:06:43;94871.03;;;4.33;69.70
9538;BME280;4807;48.024;11.726;2023-04-07T05:09:54;94865.59;;;4.34;70.05
9538;BME280;4807;48.024;11.726;2023-04-07T05:13:04;94865.28;;;4.37;70.06
9538;BME280;4807;48.024;11.726;2023-04-07T05:16:15;94864.63;;;4.35;70.22
9538;BME280;4807;48.024;11.726;2023-04-07T05:19:24;94863.63;;;4.20;71.89
9538;BME280;4807;48.024;11.726;2023-04-07T05:22:36;94865.44;;;4.28;71.61
9538;BME280;4807;48.024;11.726;2023-04-07T05:25:47;94863.47;;;4.38;71.16
9538;BME280;4807;48.024;11.726;2023-04-07T05:28:57;94863.78;;;4.35;71.73
9538;BME280;4807;48.024;11.726;2023-04-07T05:32:05;94862.47;;;4.39;71.78
9538;BME280;4807;48.024;11.726;2023-04-07T05:35:15;94853.56;;;4.40;72.86
9538;BME280;4807;48.024;11.726;2023-04-07T05:38:30;94853.91;;;4.37;73.10
9538;BME280;4807;48.024;11.726;2023-04-07T05:41:46;94851.91;;;4.14;74.56
9538;BME280;4807;48.024;11.726;2023-04-07T05:44:56;94860.47;;;4.00;75.01
9538;BME280;4807;48.024;11.726;2023-04-07T05:48:06;94856.19;;;3.99;75.52
9538;BME280;4807;48.024;11.726;2023-04-07T05:51:20;94851.56;;;3.93;76.14
9538;BME280;4807;48.024;11.726;2023-04-07T05:54:31;94859.19;;;4.20;75.04
9538;BME280;4807;48.024;11.726;2023-04-07T05:57:42;94859.16;;;4.04;75.65
9538;BME280;4807;48.024;11.726;2023-04-07T06:00:53;94858.84;;;4.32;74.97
9538;BME280;4807;48.024;11.726;2023-04-07T06:04:01;94858.84;;;4.48;74.66
9538;BME280;4807;48.024;11.726;2023-04-07T06:07:10;94856.50;;;4.85;73.60
9538;BME280;4807;48.024;11.726;2023-04-07T06:10:22;94849.50;;;5.09;72.92
9538;BME280;4807;48.024;11.726;2023-04-07T06:13:32;94841.78;;;5.38;72.37
9538;BME280;4807;48.024;11.726;2023-04-07T06:16:43;94840.53;;;5.65;70.74
9538;BME280;4807;48.024;11.726;2023-04-07T06:19:52;94836.41;;;5.85;70.61
9538;BME280;4807;48.024;11.726;2023-04-07T06:23:00;94837.84;;;5.73;70.24
9538;BME280;4807;48.024;11.726;2023-04-07T06:26:10;94838.91;;;5.87;69.69
9538;BME280;4807;48.024;11.726;2023-04-07T06:29:18;94835.84;;;5.75;70.46
9538;BME280;4807;48.024;11.726;2023-04-07T06:32:28;94837.16;;;6.02;69.76
9538;BME280;4807;48.024;11.726;2023-04-07T06:35:39;94840.06;;;6.15;69.30
9538;BME280;4807;48.024;11.726;2023-04-07T06:38:47;94832.59;;;6.19;68.94
9538;BME280;4807;48.024;11.726;2023-04-07T06:41:55;94831.50;;;6.50;67.95
9538;BME280;4807;48.024;11.726;2023-04-07T06:45:05;94820.78;;;6.81;66.92
9538;BME280;4807;48.024;11.726;2023-04-07T06:48:14;94823.00;;;7.07;65.80
9538;BME280;4807;48.024;11.726;2023-04-07T06:51:23;94820.81;;;7.25;64.52
9538;BME280;4807;48.024;11.726;2023-04-07T06:54:32;94817.22;;;7.48;64.93
9538;BME280;4807;48.024;11.726;2023-04-07T06:57:40;94820.06;;;7.61;63.53
9538;BME280;4807;48.024;11.726;2023-04-07T07:00:48;94817.47;;;7.68;63.54
9538;BME280;4807;48.024;11.726;2023-04-07T07:03:58;94809.72;;;7.66;62.81
9538;BME280;4807;48.024;11.726;2023-04-07T07:07:06;94812.53;;;7.64;62.96
9538;BME280;4807;48.024;11.726;2023-04-07T07:10:14;94808.88;;;7.65;62.79
9538;BME280;4807;48.024;11.726;2023-04-07T07:13:25;94811.09;;;7.62;62.66
9538;BME280;4807;48.024;11.726;2023-04-07T07:16:33;94808.72;;;7.67;62.46
9538;BME280;4807;48.024;11.726;2023-04-07T07:19:44;94814.16;;;7.80;61.91
9538;BME280;4807;48.024;11.726;2023-04-07T07:22:52;94807.25;;;8.00;61.20
9538;BME280;4807;48.024;11.726;2023-04-07T07:26:01;94813.53;;;8.21;60.46
9538;BME280;4807;48.024;11.726;2023-04-07T07:29:10;94820.09;;;8.39;60.20
9538;BME280;4807;48.024;11.726;2023-04-07T07:32:19;94818.44;;;8.38;60.64
9538;BME280;4807;48.024;11.726;2023-04-07T07:35:29;94820.28;;;8.38;60.17
9538;BME280;4807;48.024;11.726;2023-04-07T07:38:39;94813.47;;;8.50;60.09
9538;BME280;4807;48.024;11.726;2023-04-07T07:41:48;94821.00;;;8.53;60.43
9538;BME280;4807;48.024;11.726;2023-04-07T07:44:57;94818.91;;;8.70;59.79
9538;BME280;4807;48.024;11.726;2023-04-07T07:48:06;94812.66;;;9.12;58.89
9538;BME280;4807;48.024;11.726;2023-04-07T07:51:16;94814.56;;;9.59;57.48
9538;BME280;4807;48.024;11.726;2023-04-07T07:54:24;94813.03;;;9.98;56.15
9538;BME280;4807;48.024;11.726;2023-04-07T07:57:33;94809.81;;;9.48;56.53
9538;BME280;4807;48.024;11.726;2023-04-07T08:00:41;94816.63;;;9.23;56.84
9538;BME280;4807;48.024;11.726;2023-04-07T08:03:49;94816.34;;;9.45;56.31
9538;BME280;4807;48.024;11.726;2023-04-07T08:07:00;94815.28;;;9.40;55.88
9538;BME280;4807;48.024;11.726;2023-04-07T08:10:09;94810.56;;;9.35;56.03
9538;BME280;4807;48.024;11.726;2023-04-07T08:13:17;94818.03;;;9.60;55.77
9538;BME280;4807;48.024;11.726;2023-04-07T08:16:25;94812.56;;;9.33;56.48
9538;BME280;4807;48.024;11.726;2023-04-07T08:19:34;94803.72;;;9.61;55.43
9538;BME280;4807;48.024;11.726;2023-04-07T08:22:44;94814.41;;;9.74;54.28
9538;BME280;4807;48.024;11.726;2023-04-07T08:25:53;94812.00;;;9.92;52.92
9538;BME280;4807;48.024;11.726;2023-04-07T08:29:01;94800.75;;;9.90;52.65
9538;BME280;4807;48.024;11.726;2023-04-07T08:32:09;94802.22;;;9.99;51.60
9538;BME280;4807;48.024;11.726;2023-04-07T08:35:17;94794.75;;;10.49;51.27
9538;BME280;4807;48.024;11.726;2023-04-07T08:38:27;94794.16;;;10.73;49.26
9538;BME280;4807;48.024;11.726;2023-04-07T08:41:40;94788.00;;;10.66;50.37
9538;BME280;4807;48.024;11.726;2023-04-07T08:44:52;94796.19;;;11.11;49.46
9538;BME280;4807;48.024;11.726;2023-04-07T08:48:10;94793.97;;;11.65;48.32
9538;BME280;4807;48.024;11.726;2023-04-07T08:51:27;94799.56;;;12.02;47.40
9538;BME280;4807;48.024;11.726;2023-04-07T08:54:37;94799.94;;;12.12;47.63
9538;BME280;4807;48.024;11.726;2023-04-07T08:57:46;94797.72;;;12.40;45.65
9538;BME280;4807;48.024;11.726;2023-04-07T09:00:55;94798.38;;;11.98;45.35
9538;BME280;4807;48.024;11.726;2023-04-07T09:04:04;94799.13;;;12.11;45.74
9538;BME280;4807;48.024;11.726;2023-04-07T09:07:13;94790.38;;;12.29;44.63
9538;BME280;4807;48.024;11.726;2023-04-07T09:10:23;94795.59;;;12.74;45.27
9538;BME280;4807;48.024;11.726;2023-04-07T09:13:31;94790.94;;;12.69;43.53
9538;BME280;4807;48.024;11.726;2023-04-07T09:16:40;94784.47;;;12.52;45.13
9538;BME280;4807;48.024;11.726;2023-04-07T09:19:49;94789.69;;;12.72;44.22
9538;BME280;4807;48.024;11.726;2023-04-07T09:22:58;94789.00;;;12.51;43.72
9538;BME280;4807;48.024;11.726;2023-04-07T09:26:22;94787.25;;;12.07;45.21
9538;BME280;4807;48.024;11.726;2023-04-07T09:29:31;94782.06;;;11.74;45.29
9538;BME280;4807;48.024;11.726;2023-04-07T09:32:39;94782.38;;;11.98;45.34
9538;BME280;4807;48.024;11.726;2023-04-07T09:35:51;94778.63;;;11.54;47.92
9538;BME280;4807;48.024;11.726;2023-04-07T09:39:07;94779.28;;;12.57;45.40
9538;BME280;4807;48.024;11.726;2023-04-07T09:42:18;94776.53;;;13.38;42.19
9538;BME280;4807;48.024;11.726;2023-04-07T09:45:27;94768.91;;;13.42;41.44
9538;BME280;4807;48.024;11.726;2023-04-07T09:48:44;94765.31;;;12.86;43.81
9538;BME280;4807;48.024;11.726;2023-04-07T09:51:55;94767.53;;;13.14;42.30
9538;BME280;4807;48.024;11.726;2023-04-07T09:55:06;94756.19;;;13.55;41.72
9538;BME280;4807;48.024;11.726;2023-04-07T09:58:16;94756.19;;;13.37;42.42
9538;BME280;4807;48.024;11.726;2023-04-07T10:01:24;94759.09;;;13.35;40.56
9538;BME280;4807;48.024;11.726;2023-04-07T10:04:33;94756.81;;;13.14;41.46
9538;BME280;4807;48.024;11.726;2023-04-07T10:07:42;94747.66;;;13.28;42.14
9538;BME280;4807;48.024;11.726;2023-04-07T10:10:50;94749.97;;;13.00;41.00
9538;BME280;4807;48.024;11.726;2023-04-07T10:14:00;94762.78;;;12.42;44.23
9538;BME280;4807;48.024;11.726;2023-04-07T10:17:09;94760.34;;;12.40;41.89
9538;BME280;4807;48.024;11.726;2023-04-07T10:20:19;94751.78;;;11.49;44.36
9538;BME280;4807;48.024;11.726;2023-04-07T10:23:42;94751.28;;;12.41;45.28
9538;BME280;4807;48.024;11.726;2023-04-07T10:26:58;94741.63;;;13.51;41.86
9538;BME280;4807;48.024;11.726;2023-04-07T10:30:16;94745.53;;;13.85;42.56
9538;BME280;4807;48.024;11.726;2023-04-07T10:33:46;94746.59;;;12.61;44.20
9538;BME280;4807;48.024;11.726;2023-04-07T10:37:11;94745.66;;;12.74;43.65
9538;BME280;4807;48.024;11.726;2023-04-07T10:40:28;94748.56;;;11.85;45.71
9538;BME280;4807;48.024;11.726;2023-04-07T10:43:38;94737.53;;;12.13;45.85
9538;BME280;4807;48.024;11.726;2023-04-07T10:47:03;94742.56;;;12.52;45.54
9538;BME280;4807;48.024;11.726;2023-04-07T10:50:20;94745.75;;;12.11;44.39
9538;BME280;4807;48.024;11.726;2023-04-07T10:53:30;94742.91;;;12.87;43.49
9538;BME280;4807;48.024;11.726;2023-04-07T10:57:05;94746.19;;;12.33;42.39
9538;BME280;4807;48.024;11.726;2023-04-07T11:00:18;94735.88;;;12.12;43.09
9538;BME280;4807;48.024;11.726;2023-04-07T11:03:29;94733.63;;;13.08;47.86
9538;BME280;4807;48.024;11.726;2023-04-07T11:06:46;94725.19;;;13.48;44.10
9538;BME280;4807;48.024;11.726;2023-04-07T11:10:08;94721.81;;;14.19;41.53
9538;BME280;4807;48.024;11.726;2023-04-07T11:13:17;94729.59;;;13.90;42.33
9538;BME280;4807;48.024;11.726;2023-04-07T11:16:37;94725.13;;;14.02;40.44
9538;BME280;4807;48.024;11.726;2023-04-07T11:19:53;94731.97;;;13.68;39.43
9538;BME280;4807;48.024;11.726;2023-04-07T11:23:03;94720.66;;;14.26;42.02
9538;BME280;4807;48.024;11.726;2023-04-07T11:26:14;94721.72;;;14.37;40.13
9538;BME280;4807;48.024;11.726;2023-04-07T11:29:27;94719.25;;;14.35;38.06
9538;BME280;4807;48.024;11.726;2023-04-07T11:32:36;94714.81;;;14.71;36.61
9538;BME280;4807;48.024;11.726;2023-04-07T11:35:55;94718.63;;;14.40;37.87
9538;BME280;4807;48.024;11.726;2023-04-07T11:39:04;94715.81;;;13.75;41.12
9538;BME280;4807;48.024;11.726;2023-04-07T11:42:12;94715.63;;;13.58;43.44
9538;BME280;4807;48.024;11.726;2023-04-07T11:45:20;94719.09;;;12.61;42.20
9538;BME280;4807;48.024;11.726;2023-04-07T11:48:30;94712.78;;;12.74;42.77
9538;BME280;4807;48.024;11.726;2023-04-07T11:51:43;94722.16;;;12.83;43.26
9538;BME280;4807;48.024;11.726;2023-04-07T11:54:51;94719.63;;;13.13;43.84
9538;BME280;4807;48.024;11.726;2023-04-07T11:58:06;94716.94;;;13.13;42.00
9538;BME280;4807;48.024;11.726;2023-04-07T12:01:16;94712.66;;;13.48;42.86
9538;BME280;4807;48.024;11.726;2023-04-07T12:04:25;94716.28;;;11.93;44.57
9538;BME280;4807;48.024;11.726;2023-04-07T12:07:36;94711.09;;;11.67;43.63
9538;BME280;4807;48.024;11.726;2023-04-07T12:10:45;94704.22;;;11.84;42.50
9538;BME280;4807;48.024;11.726;2023-04-07T12:13:54;94702.34;;;12.90;42.37
9538;BME280;4807;48.024;11.726;2023-04-07T12:17:03;94704.72;;;13.42;40.79
9538;BME280;4807;48.024;11.726;2023-04-07T12:20:14;94714.56;;;13.78;38.74
9538;BME280;4807;48.024;11.726;2023-04-07T12:23:25;94712.31;;;12.34;42.73
9538;BME280;4807;48.024;11.726;2023-04-07T12:26:33;94714.91;;;11.84;45.30
9538;BME280;4807;48.024;11.726;2023-04-07T12:29:42;94710.66;;;11.70;47.20
9538;BME280;4807;48.024;11.726;2023-04-07T12:32:50;94714.13;;;12.65;43.61
9538;BME280;4807;48.024;11.726;2023-04-07T12:36:01;94708.72;;;13.14;41.57
9538;BME280;4807;48.024;11.726;2023-04-07T12:39:11;94709.97;;;13.96;42.64
9538;BME280;4807;48.024;11.726;2023-04-07T12:42:23;94706.66;;;13.53;41.45
9538;BME280;4807;48.024;11.726;2023-04-07T12:45:32;94708.50;;;14.42;40.27
9538;BME280;4807;48.024;11.726;2023-04-07T12:48:41;94712.81;;;14.55;38.30
9538;BME280;4807;48.024;11.726;2023-04-07T12:51:50;94704.56;;;15.03;37.67
9538;BME280;4807;48.024;11.726;2023-04-07T12:55:00;94711.31;;;15.28;37.43
9538;BME280;4807;48.024;11.726;2023-04-07T12:58:09;94705.28;;;14.86;36.97
9538;BME280;4807;48.024;11.726;2023-04-07T13:01:18;94713.78;;;12.97;43.48
9538;BME280;4807;48.024;11.726;2023-04-07T13:04:26;94718.53;;;11.58;44.45
9538;BME280;4807;48.024;11.726;2023-04-07T13:07:37;94712.13;;;11.66;42.62
9538;BME280;4807;48.024;11.726;2023-04-07T13:10:46;94712.28;;;12.40;41.80
9538;BME280;4807;48.024;11.726;2023-04-07T13:13:56;94714.13;;;12.65;41.24
9538;BME280;4807;48.024;11.726;2023-04-07T13:17:08;94701.84;;;13.00;40.16
9538;BME280;4807;48.024;11.726;2023-04-07T13:20:18;94699.34;;;13.60;39.31
9538;BME280;4807;48.024;11.726;2023-04-07T13:23:27;94708.97;;;12.88;40.61
9538;BME280;4807;48.024;11.726;2023-04-07T13:26:50;94701.13;;;13.11;41.94
9538;BME280;4807;48.024;11.726;2023-04-07T13:29:58;94699.22;;;13.18;42.52
9538;BME280;4807;48.024;11.726;2023-04-07T13:33:07;94702.78;;;13.49;41.95
9538;BME280;4807;48.024;11.726;2023-04-07T13:36:16;94701.44;;;13.40;40.29
9538;BME280;4807;48.024;11.726;2023-04-07T13:39:28;94694.09;;;13.53;40.80
9538;BME280;4807;48.024;11.726;2023-04-07T13:42:38;94694.22;;;13.22;41.37
9538;BME280;4807;48.024;11.726;2023-04-07T13:45:48;94702.75;;;13.12;42.71
9538;BME280;4807;48.024;11.726;2023-04-07T13:48:57;94688.59;;;13.12;44.42
9538;BME280;4807;48.024;11.726;2023-04-07T13:52:05;94692.97;;;13.24;44.07
9538;BME280;4807;48.024;11.726;2023-04-07T13:55:14;94701.38;;;13.28;43.61
9538;BME280;4807;48.024;11.726;2023-04-07T13:58:27;94691.22;;;13.36;43.78
9538;BME280;4807;48.024;11.726;2023-04-07T14:01:37;94700.97;;;12.88;43.07
9538;BME280;4807;48.024;11.726;2023-04-07T14:04:46;94706.47;;;12.68;43.95
9538;BME280;4807;48.024;11.726;2023-04-07T14:07:55;94700.78;;;12.83;43.27
9538;BME280;4807;48.024;11.726;2023-04-07T14:11:03;94697.31;;;13.00;43.78
9538;BME280;4807;48.024;11.726;2023-04-07T14:14:13;94695.09;;;12.79;44.01
9538;BME280;4807;48.024;11.726;2023-04-07T14:17:21;94700.53;;;12.66;44.05
9538;BME280;4807;48.024;11.726;2023-04-07T14:20:30;94703.31;;;12.78;43.90
9538;BME280;4807;48.024;11.726;2023-04-07T14:23:39;94700.06;;;12.94;44.35
9538;BME280;4807;48.024;11.726;2023-04-07T14:26:48;94702.66;;;13.00;43.75
9538;BME280;4807;48.024;11.726;2023-04-07T14:29:58;94706.47;;;13.11;44.44
9538;BME280;4807;48.024;11.726;2023-04-07T14:33:07;94707.72;;;13.09;45.13
9538;BME280;4807;48.024;11.726;2023-04-07T14:36:15;94704.44;;;13.13;44.99
9538;BME280;4807;48.024;11.726;2023-04-07T14:39:24;94701.00;;;13.24;43.83
9538;BME280;4807;48.024;11.726;2023-04-07T14:42:32;94708.13;;;13.12;44.29
9538;BME280;4807;48.024;11.726;2023-04-07T14:45:43;94707.81;;;13.02;43.82
9538;BME280;4807;48.024;11.726;2023-04-07T14:48:51;94706.13;;;12.83;44.59
9538;BME280;4807;48.024;11.726;2023-04-07T14:51:59;94705.78;;;12.79;45.09
9538;BME280;4807;48.024;11.726;2023-04-07T14:55:08;94710.94;;;12.74;45.30
9538;BME280;4807;48.024;11.726;2023-04-07T14:58:16;94711.34;;;12.78;44.97
9538;BME280;4807;48.024;11.726;2023-04-07T15:01:26;94710.66;;;12.64;46.20
9538;BME280;4807;48.024;11.726;2023-04-07T15:04:35;94719.97;;;12.55;45.92
9538;BME280;4807;48.024;11.726;2023-04-07T15:07:45;94720.59;;;12.50;46.59
9538;BME280;4807;48.024;11.726;2023-04-07T15:10:55;94714.63;;;12.30;45.57
9538;BME280;4807;48.024;11.726;2023-04-07T15:14:04;94723.16;;;12.14;45.22
9538;BME280;4807;48.024;11.726;2023-04-07T15:17:14;94719.22;;;11.85;46.08
9538;BME280;4807;48.024;11.726;2023-04-07T15:20:23;94718.97;;;11.93;45.86
9538;BME280;4807;48.024;11.726;2023-04-07T15:23:32;94721.22;;;11.96;46.19
9538;BME280;4807;48.024;11.726;2023-04-07T15:26:40;94724.94;;;11.89;45.44
9538;BME280;4807;48.024;11.726;2023-04-07T15:29:50;94731.59;;;11.66;46.37
9538;BME280;4807;48.024;11.726;2023-04-07T15:33:02;94718.94;;;11.55;47.74
9538;BME280;4807;48.024;11.726;2023-04-07T15:36:11;94715.31;;;11.43;47.01
9538;BME280;4807;48.024;11.726;2023-04-07T15:39:20;94731.47;;;11.48;47.65
9538;BME280;4807;48.024;11.726;2023-04-07T15:42:29;94719.78;;;11.49;48.78
9538;BME280;4807;48.024;11.726;2023-04-07T15:45:41;94729.66;;;11.42;48.67
9538;BME280;4807;48.024;11.726;2023-04-07T15:48:52;94725.56;;;11.39;49.39
9538;BME280;4807;48.024;11.726;2023-04-07T15:52:01;94730.13;;;11.26;49.78
9538;BME280;4807;48.024;11.726;2023-04-07T15:55:11;94734.84;;;11.24;51.90
9538;BME280;4807;48.024;11.726;2023-04-07T15:58:20;94732.19;;;11.24;50.23
9538;BME280;4807;48.024;11.726;2023-04-07T16:01:29;94740.00;;;11.12;50.84
9538;BME280;4807;48.024;11.726;2023-04-07T16:04:40;94742.50;;;11.00;52.20
9538;BME280;4807;48.024;11.726;2023-04-07T16:07:49;94737.56;;;10.97;51.30
9538;BME280;4807;48.024;11.726;2023-04-07T16:10:57;94744.56;;;10.92;51.47
9538;BME280;4807;48.024;11.726;2023-04-07T16:14:09;94742.53;;;10.94;52.07
9538;BME280;4807;48.024;11.726;2023-04-07T16:17:20;94739.25;;;10.85;51.80
9538;BME280;4807;48.024;11.726;2023-04-07T16:20:31;94742.53;;;10.74;52.50
9538;BME280;4807;48.024;11.726;2023-04-07T16:23:40;94744.59;;;10.65;52.54
9538;BME280;4807;48.024;11.726;2023-04-07T16:26:49;94744.59;;;10.52;52.92
9538;BME280;4807;48.024;11.726;2023-04-07T16:29:58;94754.63;;;10.37;52.68
9538;BME280;4807;48.024;11.726;2023-04-07T16:33:07;94755.84;;;10.28;54.55
9538;BME280;4807;48.024;11.726;2023-04-07T16:36:16;94760.16;;;10.29;54.31
9538;BME280;4807;48.024;11.726;2023-04-07T16:39:25;94747.88;;;10.21;54.65
9538;BME280;4807;48.024;11.726;2023-04-07T16:42:35;94763.78;;;10.15;54.26
9538;BME280;4807;48.024;11.726;2023-04-07T16:45:49;94760.91;;;10.03;54.38
9538;BME280;4807;48.024;11.726;2023-04-07T16:48:58;94764.34;;;9.90;54.51
9538;BME280;4807;48.024;11.726;2023-04-07T16:52:10;94770.28;;;9.92;54.96
9538;BME280;4807;48.024;11.726;2023-04-07T16:55:19;94772.72;;;9.81;54.70
9538;BME280;4807;48.024;11.726;2023-04-07T16:58:28;94767.97;;;9.70;54.68
9538;BME280;4807;48.024;11.726;2023-04-07T17:01:36;94777.78;;;9.63;55.86
9538;BME280;4807;48.024;11.726;2023-04-07T17:04:48;94776.31;;;9.60;55.85
9538;BME280;4807;48.024;11.726;2023-04-07T17:07:58;94782.25;;;9.55;55.74
9538;BME280;4807;48.024;11.726;2023-04-07T17:11:07;94788.97;;;9.58;55.54